PWSweather.com
Personal Weather Stations
Station Observations
KVAGLENALL
West Henrico, Glen Allen, VA 23060-6503

West HenricoGlen Allen, VA 23060-6503

Lat: 37.6554, Lon: -77.5693

Elevation: 273

Station Type: Davis Vantage Pro II

www.glenallenweather.com

High Low Average
Temperature 82.5°F28.1°C 54.2°F12.3°C 70.6°F21.4°C
Dew Point 63.7°F17.6°C 51.3°F10.7°C 57.8°F14.3°C
Winds 12.0 mph 19.3 kmh Calm Calm 4.0 mph SSW6.4 kmh SSW
Wind Gusts 14.1 mph22.7 kmh -- 7.0 mph11.3 kmh
Humidity 90% 47% 66%
Pressure 30.20 in1022.7 mb 30.04 in1017.3 mb -
Precipitation 0.00 in0.0 mm - -
Hour Temp Dew Point Humidity Winds Wind Gusts Pressure Precip Precip Rate Daily Precip Total
12:00 AM 60.3°F15.7°C 53.4°F11.9°C 78% 2.0 mph S3.2 kmh S 3.0 mph4.8 kmh 30.16 in1021.3 mb 0.00 in0.0 mm 0.00 in0.0 mm 0.00 in0.0 mm
01:00 AM 58.2°F14.6°C 52.7°F11.5°C 82% 2.0 mph S3.2 kmh S 3.0 mph4.8 kmh 30.16 in1021.3 mb 0.00 in0.0 mm 0.00 in0.0 mm 0.00 in0.0 mm
02:00 AM 56.9°F13.8°C 52.4°F11.3°C 85% Calm Calm 1.0 mph1.6 kmh 30.16 in1021.3 mb 0.00 in0.0 mm 0.00 in0.0 mm 0.00 in0.0 mm
03:00 AM 55.0°F12.8°C 51.8°F11.0°C 89% Calm Calm -- 30.14 in1020.7 mb 0.00 in0.0 mm 0.00 in0.0 mm 0.00 in0.0 mm
04:00 AM 54.9°F12.7°C 51.7°F10.9°C 89% 2.0 mph S3.2 kmh S 3.0 mph4.8 kmh 30.15 in1021.0 mb 0.00 in0.0 mm 0.00 in0.0 mm 0.00 in0.0 mm
05:00 AM 54.2°F12.3°C 51.3°F10.7°C 90% Calm Calm -- 30.17 in1021.7 mb 0.00 in0.0 mm 0.00 in0.0 mm 0.00 in0.0 mm
06:00 AM 56.0°F13.3°C 53.1°F11.7°C 90% Calm Calm 1.0 mph1.6 kmh 30.19 in1022.4 mb 0.00 in0.0 mm 0.00 in0.0 mm 0.00 in0.0 mm
07:00 AM 61.9°F16.6°C 56.7°F13.7°C 83% 2.0 mph SSW3.2 kmh SSW 2.0 mph3.2 kmh 30.20 in1022.7 mb 0.00 in0.0 mm 0.00 in0.0 mm 0.00 in0.0 mm
08:00 AM 71.8°F22.1°C 58.9°F14.9°C 64% 2.0 mph SSW3.2 kmh SSW 7.1 mph11.4 kmh 30.20 in1022.7 mb 0.00 in0.0 mm 0.00 in0.0 mm 0.00 in0.0 mm
09:00 AM 75.0°F23.9°C 59.2°F15.1°C 58% 6.0 mph SSW9.7 kmh SSW 11.1 mph17.9 kmh 30.20 in1022.7 mb 0.00 in0.0 mm 0.00 in0.0 mm 0.00 in0.0 mm
10:00 AM 77.7°F25.4°C 59.7°F15.4°C 54% 5.0 mph SW8.0 kmh SW 10.1 mph16.3 kmh 30.19 in1022.4 mb 0.00 in0.0 mm 0.00 in0.0 mm 0.00 in0.0 mm
11:00 AM 78.8°F26.0°C 60.2°F15.7°C 53% 7.0 mph S11.3 kmh S 10.1 mph16.3 kmh 30.17 in1021.7 mb 0.00 in0.0 mm 0.00 in0.0 mm 0.00 in0.0 mm
12:00 PM 80.3°F26.8°C 61.6°F16.4°C 53% 8.0 mph SSW12.9 kmh SSW 11.1 mph17.9 kmh 30.15 in1021.0 mb 0.00 in0.0 mm 0.00 in0.0 mm 0.00 in0.0 mm
01:00 PM 81.3°F27.4°C 59.8°F15.4°C 48% 4.0 mph SW6.4 kmh SW 14.1 mph22.7 kmh 30.12 in1020.0 mb 0.00 in0.0 mm 0.00 in0.0 mm 0.00 in0.0 mm
02:00 PM 82.5°F28.1°C 63.7°F17.6°C 53% 6.0 mph SW9.7 kmh SW 8.1 mph13.0 kmh 30.09 in1019.0 mb 0.00 in0.0 mm 0.00 in0.0 mm 0.00 in0.0 mm
03:00 PM 82.3°F27.9°C 60.1°F15.6°C 47% 12.0 mph SW19.3 kmh SW 14.1 mph22.7 kmh 30.07 in1018.3 mb 0.00 in0.0 mm 0.00 in0.0 mm 0.00 in0.0 mm
04:00 PM 82.0°F27.8°C 59.8°F15.4°C 47% 4.0 mph SW6.4 kmh SW 13.1 mph21.1 kmh 30.07 in1018.3 mb 0.00 in0.0 mm 0.00 in0.0 mm 0.00 in0.0 mm
05:00 PM 80.9°F27.2°C 60.0°F15.6°C 49% 9.0 mph S14.5 kmh S 13.1 mph21.1 kmh 30.07 in1018.3 mb 0.00 in0.0 mm 0.00 in0.0 mm 0.00 in0.0 mm
06:00 PM 78.4°F25.8°C 60.4°F15.8°C 54% 2.0 mph S3.2 kmh S 8.1 mph13.0 kmh 30.06 in1017.9 mb 0.00 in0.0 mm 0.00 in0.0 mm 0.00 in0.0 mm
07:00 PM 76.0°F24.4°C 61.1°F16.2°C 60% 3.0 mph SSW4.8 kmh SSW 5.1 mph8.2 kmh 30.06 in1017.9 mb 0.00 in0.0 mm 0.00 in0.0 mm 0.00 in0.0 mm
08:00 PM 73.6°F23.1°C 60.7°F15.9°C 64% 3.0 mph S4.8 kmh S 6.1 mph9.8 kmh 30.05 in1017.6 mb 0.00 in0.0 mm 0.00 in0.0 mm 0.00 in0.0 mm
09:00 PM 72.6°F22.6°C 60.6°F15.9°C 66% 5.0 mph SW8.0 kmh SW 9.1 mph14.6 kmh 30.06 in1017.9 mb 0.00 in0.0 mm 0.00 in0.0 mm 0.00 in0.0 mm
10:00 PM 72.2°F22.3°C 60.2°F15.7°C 66% 8.0 mph SSW12.9 kmh SSW 9.1 mph14.6 kmh 30.06 in1017.9 mb 0.00 in0.0 mm 0.00 in0.0 mm 0.00 in0.0 mm
11:00 PM 71.4°F21.9°C 58.6°F14.8°C 64% 7.0 mph S11.3 kmh S 11.1 mph17.9 kmh 30.04 in1017.3 mb 0.00 in0.0 mm 0.00 in0.0 mm 0.00 in0.0 mm